Time;durP1;ratioP1;P1;durP2;ratioP2;P2;SDS_P1;SDS_P2;PMS_P1;PMS_P2;Temp;Humidity;BMP_temperature;BMP_pressure;BME280_temperature;BME280_humidity;BME280_pressure;Samples;Min_cycle;Max_cycle;Signal;HPM_P1;HPM_P2
2024/02/29 00:00:54;;;;;;;;;;;;;;;26.29;38.82;94321.03;4937944;28;8741;-41
2024/02/29 00:03:29;;;;;;;;;;;;;;;26.30;39.56;94321.78;4921149;29;7130;-39
2024/02/29 00:06:12;;;;;;;;;;;;;;;26.32;39.05;94313.75;4929953;29;9047;-40
2024/02/29 00:08:46;;;;;;;;;;;;;;;26.30;38.89;94313.50;4934109;29;7288;-40
2024/02/29 00:11:21;;;;;;;;;;;;;;;26.29;39.01;94312.03;4905439;29;7106;-39
2024/02/29 00:13:56;;;;;;;;;;;;;;;26.28;39.21;94311.28;4949497;28;7079;-39
2024/02/29 00:19:44;;;;;;;;;;;;;;;26.27;39.04;94306.28;4925220;29;7666;-40
2024/02/29 00:22:21;;;;;;;;;;;;;;;26.23;39.40;94298.28;4970536;28;7108;-39
2024/02/29 00:24:55;;;;;;;;;;;;;;;26.24;39.13;94293.53;5026254;28;7355;-39
2024/02/29 00:27:32;;;;;;;;;;;;;;;26.28;39.62;94293.97;5085278;28;8766;-40
2024/02/29 00:30:28;;;;;;;;;;;;;;;26.27;39.17;94295.25;5065356;28;9266;-40
2024/02/29 00:32:59;;;;;;;;;;;;;;;26.28;39.01;94300.25;5034158;28;7039;-40
2024/02/29 00:35:26;;;;;;;;;;;;;;;26.28;39.11;94294.72;5033682;28;7128;-40
2024/02/29 00:38:05;;;;;;;;;;;;;;;26.26;39.00;94300.00;5038558;28;7291;-39
2024/02/29 00:40:49;;;;;;;;;;;;;;;26.26;39.27;94299.25;5019081;28;7390;-40
2024/02/29 00:43:24;;;;;;;;;;;;;;;26.27;38.99;94289.72;5017171;28;7052;-40
2024/02/29 00:45:50;;;;;;;;;;;;;;;26.26;38.87;94288.22;5025905;28;8693;-40
2024/02/29 00:48:33;;;;;;;;;;;;;;;26.30;39.50;94294.19;5036931;28;8966;-40
2024/02/29 00:51:12;;;;;;;;;;;;;;;26.27;39.47;94289.72;5031229;28;9054;-41
2024/02/29 00:53:51;;;;;;;;;;;;;;;26.26;39.27;94288.22;5016767;28;7186;-40
2024/02/29 00:56:26;;;;;;;;;;;;;;;26.28;38.85;94278.19;5035859;28;7090;-41
2024/02/29 00:59:06;;;;;;;;;;;;;;;26.30;38.84;94275.66;5033435;28;7120;-39
2024/02/29 01:01:34;;;;;;;;;;;;;;;26.29;39.19;94273.41;5020982;28;8861;-39
2024/02/29 01:04:10;;;;;;;;;;;;;;;26.24;38.94;94258.44;5033163;28;9281;-39
2024/02/29 01:06:36;;;;;;;;;;;;;;;26.29;38.92;94270.66;5021497;28;7054;-40
2024/02/29 01:09:04;;;;;;;;;;;;;;;26.26;39.18;94264.16;5042405;28;9353;-39
2024/02/29 01:11:32;;;;;;;;;;;;;;;26.28;38.74;94263.63;5055732;28;7044;-40
2024/02/29 01:14:02;;;;;;;;;;;;;;;26.27;38.79;94262.16;5075469;28;7041;-38
2024/02/29 01:16:28;;;;;;;;;;;;;;;26.27;38.96;94268.44;5059179;28;7274;-39
2024/02/29 01:18:54;;;;;;;;;;;;;;;26.27;38.76;94264.91;5042796;28;9286;-42
2024/02/29 01:21:22;;;;;;;;;;;;;;;26.27;38.91;94256.66;5063660;28;9060;-39
2024/02/29 01:23:58;;;;;;;;;;;;;;;26.29;39.54;94257.63;5084128;28;7098;-38
2024/02/29 01:26:23;;;;;;;;;;;;;;;26.29;38.72;94259.63;5055760;28;8665;-38
2024/02/29 01:28:52;;;;;;;;;;;;;;;26.28;38.70;94245.09;5062743;28;7000;-37
2024/02/29 01:31:19;;;;;;;;;;;;;;;26.28;38.56;94245.09;5056207;28;7034;-37
2024/02/29 01:33:47;;;;;;;;;;;;;;;26.27;39.04;94245.63;5059760;28;7142;-37
2024/02/29 01:36:18;;;;;;;;;;;;;;;26.27;38.83;94240.09;5056679;28;7106;-38
2024/02/29 01:39:22;;;;;;;;;;;;;;;26.28;39.14;94236.06;5060455;28;7045;-38
2024/02/29 01:41:51;;;;;;;;;;;;;;;26.25;39.24;94226.84;5032570;28;9453;-38
2024/02/29 01:44:18;;;;;;;;;;;;;;;26.26;38.73;94227.56;4997047;28;7298;-38
2024/02/29 01:47:12;;;;;;;;;;;;;;;26.27;38.63;94229.84;5023407;28;7062;-37
2024/02/29 01:49:49;;;;;;;;;;;;;;;26.25;38.69;94226.09;4996302;28;9064;-37
2024/02/29 01:52:21;;;;;;;;;;;;;;;26.26;39.02;94227.56;5014525;28;8777;-38
2024/02/29 01:54:52;;;;;;;;;;;;;;;26.27;38.69;94223.56;5020904;28;7293;-37
2024/02/29 01:57:29;;;;;;;;;;;;;;;26.28;38.54;94214.00;5007001;28;7037;-37
2024/02/29 01:59:56;;;;;;;;;;;;;;;26.27;38.95;94220.81;4995524;28;7022;-38
2024/02/29 02:02:36;;;;;;;;;;;;;;;26.28;39.22;94219.53;4995358;28;7288;-37
2024/02/29 02:05:07;;;;;;;;;;;;;;;26.26;38.26;94222.06;4998185;28;7281;-38
2024/02/29 02:07:39;;;;;;;;;;;;;;;26.26;38.71;94222.81;5021347;28;9417;-37
2024/02/29 02:10:07;;;;;;;;;;;;;;;26.26;39.01;94216.53;5005177;28;7044;-38
2024/02/29 02:12:40;;;;;;;;;;;;;;;26.28;38.59;94214.00;5061019;28;7292;-37
2024/02/29 02:15:07;;;;;;;;;;;;;;;26.24;38.67;94214.31;5086222;28;9065;-38
2024/02/29 02:17:33;;;;;;;;;;;;;;;26.25;38.93;94210.31;5072647;28;9201;-37
2024/02/29 02:20:00;;;;;;;;;;;;;;;26.23;39.25;94214.84;5072923;28;8806;-37
2024/02/29 02:22:27;;;;;;;;;;;;;;;26.25;38.31;94217.81;5054401;28;7264;-38
2024/02/29 02:24:52;;;;;;;;;;;;;;;26.23;38.65;94207.31;5056264;28;7028;-38
2024/02/29 02:27:20;;;;;;;;;;;;;;;26.23;38.91;94206.56;5069580;28;7075;-37
2024/02/29 02:29:46;;;;;;;;;;;;;;;26.23;38.37;94204.53;5050686;28;7071;-37
2024/02/29 02:32:14;;;;;;;;;;;;;;;26.23;38.71;94201.78;5070864;28;9243;-37
2024/02/29 02:34:43;;;;;;;;;;;;;;;26.24;38.27;94199.78;5078230;28;8872;-41
2024/02/29 02:37:13;;;;;;;;;;;;;;;26.23;39.06;94196.28;5050473;28;9038;-41
2024/02/29 02:39:39;;;;;;;;;;;;;;;26.25;38.64;94193.00;5061622;28;7604;-43
2024/02/29 02:42:07;;;;;;;;;;;;;;;26.24;38.67;94195.03;5053116;28;9167;-42
2024/02/29 02:44:33;;;;;;;;;;;;;;;26.21;38.83;94178.78;5070658;28;9051;-43
2024/02/29 02:47:02;;;;;;;;;;;;;;;26.24;39.11;94194.25;5067831;28;7007;-43
2024/02/29 02:49:28;;;;;;;;;;;;;;;26.24;38.53;94199.78;5053188;28;7784;-42
2024/02/29 02:51:54;;;;;;;;;;;;;;;26.24;38.89;94191.50;5057459;28;7593;-42
2024/02/29 02:54:19;;;;;;;;;;;;;;;26.26;38.60;94188.97;5077339;28;6984;-42
2024/02/29 02:56:47;;;;;;;;;;;;;;;26.25;38.86;94184.75;5061129;28;7564;-42
2024/02/29 02:59:14;;;;;;;;;;;;;;;26.25;38.45;94173.72;5067476;28;7237;-42
2024/02/29 03:01:43;;;;;;;;;;;;;;;26.24;38.39;94174.97;5069887;28;7047;-42
2024/02/29 03:04:15;;;;;;;;;;;;;;;26.26;38.70;94180.72;5053415;28;9628;-42
2024/02/29 03:06:41;;;;;;;;;;;;;;;26.25;39.03;94182.00;5052759;28;7113;-41
2024/02/29 03:09:11;;;;;;;;;;;;;;;26.25;39.18;94173.72;5053963;28;7084;-41
2024/02/29 03:11:40;;;;;;;;;;;;;;;26.24;38.97;94175.72;5055192;28;7024;-43
2024/02/29 03:14:10;;;;;;;;;;;;;;;26.24;38.75;94174.97;5074638;28;6999;-43
2024/02/29 03:16:39;;;;;;;;;;;;;;;26.21;39.06;94168.47;5070395;28;7103;-41
2024/02/29 03:19:05;;;;;;;;;;;;;;;26.24;38.82;94174.97;5060255;28;8319;-42
2024/02/29 03:21:32;;;;;;;;;;;;;;;26.24;38.30;94169.44;5073506;28;7048;-41
2024/02/29 03:23:58;;;;;;;;;;;;;;;26.22;38.22;94160.97;5075823;28;7026;-43
2024/02/29 03:26:24;;;;;;;;;;;;;;;26.21;38.88;94162.25;5059760;28;7621;-43
2024/02/29 03:28:51;;;;;;;;;;;;;;;26.19;38.87;94159.97;5064852;28;7303;-42
2024/02/29 03:31:17;;;;;;;;;;;;;;;26.21;38.36;94160.22;5064654;28;7125;-43
2024/02/29 03:34:15;;;;;;;;;;;;;;;26.24;38.80;94152.91;5059880;28;7011;-41
2024/02/29 03:36:42;;;;;;;;;;;;;;;26.23;38.62;94154.91;5076154;28;7217;-42
2024/02/29 03:39:13;;;;;;;;;;;;;;;26.23;37.91;94145.91;5073012;28;9414;-42
2024/02/29 03:41:50;;;;;;;;;;;;;;;26.22;38.63;94145.16;5085019;28;7284;-42
2024/02/29 03:44:21;;;;;;;;;;;;;;;26.22;38.72;94144.41;5083917;28;7510;-42
2024/02/29 03:46:46;;;;;;;;;;;;;;;26.20;39.08;94135.94;5080778;28;7231;-43
2024/02/29 03:49:12;;;;;;;;;;;;;;;26.20;38.98;94135.94;5056846;28;6844;-42
2024/02/29 03:51:41;;;;;;;;;;;;;;;26.21;38.21;94131.91;5074098;28;8757;-42
2024/02/29 03:54:06;;;;;;;;;;;;;;;26.20;38.84;94138.69;5081438;28;7059;-42
2024/02/29 03:56:33;;;;;;;;;;;;;;;26.17;38.68;94132.94;5062722;28;9022;-44
2024/02/29 03:59:06;;;;;;;;;;;;;;;26.15;39.01;94135.47;5040595;28;7030;-42
2024/02/29 04:01:39;;;;;;;;;;;;;;;26.15;39.01;94121.69;5042222;28;7119;-42
2024/02/29 04:04:06;;;;;;;;;;;;;;;26.19;38.48;94123.41;5062495;28;9184;-41
2024/02/29 04:06:33;;;;;;;;;;;;;;;26.18;38.32;94117.16;5068405;28;8483;-43
2024/02/29 04:09:02;;;;;;;;;;;;;;;26.22;38.30;94120.34;5058863;28;7060;-41
2024/02/29 04:11:31;;;;;;;;;;;;;;;26.22;38.16;94133.38;5052959;28;9051;-41
2024/02/29 04:14:10;;;;;;;;;;;;;;;26.21;38.65;94120.88;5058907;28;7316;-43
2024/02/29 04:16:37;;;;;;;;;;;;;;;26.14;38.72;94114.69;5077330;28;7614;-42
2024/02/29 04:19:04;;;;;;;;;;;;;;;26.16;38.61;94116.94;5058846;28;8630;-42
2024/02/29 04:21:46;;;;;;;;;;;;;;;26.19;38.26;94113.13;5074519;28;8226;-42
2024/02/29 04:24:12;;;;;;;;;;;;;;;26.19;38.92;94115.16;5068454;28;7451;-42
2024/02/29 04:26:39;;;;;;;;;;;;;;;26.19;38.40;94115.16;5072337;28;7086;-42
2024/02/29 04:29:05;;;;;;;;;;;;;;;26.15;38.30;94107.91;5049046;28;7274;-42
2024/02/29 04:31:36;;;;;;;;;;;;;;;26.18;38.63;94100.63;5065105;28;6996;-42
2024/02/29 04:34:03;;;;;;;;;;;;;;;26.18;38.16;94106.13;5080095;28;8900;-42
2024/02/29 04:36:30;;;;;;;;;;;;;;;26.14;38.87;94100.19;5049707;28;7185;-41
2024/02/29 04:38:56;;;;;;;;;;;;;;;26.12;38.73;94102.72;5059490;28;9132;-45
2024/02/29 04:41:21;;;;;;;;;;;;;;;26.16;38.84;94100.41;5071357;28;9172;-42
2024/02/29 04:43:48;;;;;;;;;;;;;;;26.19;38.16;94102.09;5074985;28;8689;-43
2024/02/29 04:46:15;;;;;;;;;;;;;;;26.19;38.35;94095.84;5079811;28;7108;-43
2024/02/29 04:48:40;;;;;;;;;;;;;;;26.17;38.59;94102.63;5050615;28;8081;-43
2024/02/29 04:51:07;;;;;;;;;;;;;;;26.15;38.25;94090.63;5044562;28;9389;-42
2024/02/29 04:53:37;;;;;;;;;;;;;;;26.12;38.17;94095.16;5078351;28;7022;-43
2024/02/29 04:56:05;;;;;;;;;;;;;;;26.14;38.86;94092.63;5058164;28;7329;-42
2024/02/29 04:58:41;;;;;;;;;;;;;;;26.15;38.79;94096.88;5067803;28;7042;-42
2024/02/29 05:01:16;;;;;;;;;;;;;;;26.13;38.79;94087.66;5067541;28;7235;-42
2024/02/29 05:03:51;;;;;;;;;;;;;;;26.11;38.71;94093.69;5081310;28;7123;-42
2024/02/29 05:06:23;;;;;;;;;;;;;;;26.14;38.84;94095.38;5073355;28;7280;-42
2024/02/29 05:08:56;;;;;;;;;;;;;;;26.14;38.62;94089.16;5080730;28;9064;-41
2024/02/29 05:11:26;;;;;;;;;;;;;;;26.19;39.04;94091.06;5054000;28;7087;-43
2024/02/29 05:13:51;;;;;;;;;;;;;;;26.15;38.36;94091.38;5056369;28;9482;-42
2024/02/29 05:16:18;;;;;;;;;;;;;;;26.16;38.57;94092.84;5071543;28;9231;-43
2024/02/29 05:18:44;;;;;;;;;;;;;;;26.14;38.05;94095.38;5054931;28;7032;-42
2024/02/29 05:21:13;;;;;;;;;;;;;;;26.10;38.81;94088.69;5055617;28;7017;-41
2024/02/29 05:23:41;;;;;;;;;;;;;;;26.13;38.68;94088.41;5068499;28;8235;-41
2024/02/29 05:26:07;;;;;;;;;;;;;;;26.13;38.45;94091.16;5062118;28;7050;-41
2024/02/29 05:28:36;;;;;;;;;;;;;;;26.12;38.32;94091.69;5059046;28;8768;-41
2024/02/29 05:31:03;;;;;;;;;;;;;;;26.09;38.90;94092.72;5064112;28;7038;-43
2024/02/29 05:33:29;;;;;;;;;;;;;;;26.07;38.17;94087.72;5057284;28;9234;-42
2024/02/29 05:36:02;;;;;;;;;;;;;;;26.05;38.09;94081.22;5058237;28;7264;-42
2024/02/29 05:38:49;;;;;;;;;;;;;;;26.07;38.90;94095.22;5055394;28;7017;-41
2024/02/29 05:41:21;;;;;;;;;;;;;;;26.01;38.36;94087.00;5062547;28;8659;-42
2024/02/29 05:43:50;;;;;;;;;;;;;;;26.02;38.48;94087.75;5060413;28;9143;-42
2024/02/29 05:46:18;;;;;;;;;;;;;;;25.97;39.19;94081.06;5058993;28;9087;-42
2024/02/29 05:48:48;;;;;;;;;;;;;;;25.96;38.93;94081.59;5050278;28;8668;-42
2024/02/29 05:51:16;;;;;;;;;;;;;;;25.94;38.71;94079.34;5054004;28;8813;-41
2024/02/29 05:53:43;;;;;;;;;;;;;;;25.92;38.79;94073.63;5060660;28;7198;-41
2024/02/29 05:56:13;;;;;;;;;;;;;;;25.94;38.75;94075.84;5057916;28;9378;-44
2024/02/29 05:58:39;;;;;;;;;;;;;;;25.97;39.59;94074.78;5059291;28;8725;-41
2024/02/29 06:01:08;;;;;;;;;;;;;;;26.01;38.82;94072.50;5053201;28;8761;-41
2024/02/29 06:03:43;;;;;;;;;;;;;;;26.05;39.25;94070.94;5051091;28;7071;-36
2024/02/29 06:06:11;;;;;;;;;;;;;;;26.07;38.92;94070.41;5050204;28;9161;-37
2024/02/29 06:08:44;;;;;;;;;;;;;;;26.10;39.19;94069.38;5061163;28;7241;-37
2024/02/29 06:11:28;;;;;;;;;;;;;;;26.13;38.82;94071.84;5067788;28;9034;-37
2024/02/29 06:14:02;;;;;;;;;;;;;;;26.14;39.56;94076.09;5070673;28;7237;-37
2024/02/29 06:16:39;;;;;;;;;;;;;;;26.14;38.80;94081.59;5051694;28;8394;-37
2024/02/29 06:19:05;;;;;;;;;;;;;;;26.12;39.20;94081.38;5073930;28;7110;-37
2024/02/29 06:21:31;;;;;;;;;;;;;;;26.12;39.47;94086.91;5056036;28;7331;-37
2024/02/29 06:23:59;;;;;;;;;;;;;;;26.13;39.41;94082.88;5057101;28;7255;-37
2024/02/29 06:26:50;;;;;;;;;;;;;;;26.17;38.55;94075.06;5060571;28;7852;-37
2024/02/29 06:29:44;;;;;;;;;;;;;;;26.18;39.06;94078.56;5058155;28;7356;-37
2024/02/29 06:32:20;;;;;;;;;;;;;;;26.15;38.70;94069.31;5080572;28;7228;-37
2024/02/29 06:35:01;;;;;;;;;;;;;;;26.16;39.00;94072.84;5076206;28;7128;-37
2024/02/29 06:37:31;;;;;;;;;;;;;;;26.15;38.95;94076.84;5084876;28;7167;-37
2024/02/29 06:40:24;;;;;;;;;;;;;;;26.19;38.42;94076.56;5067558;28;7033;-37
2024/02/29 06:42:59;;;;;;;;;;;;;;;26.16;38.54;94065.28;5063887;28;7272;-37
2024/02/29 06:46:05;;;;;;;;;;;;;;;26.12;38.61;94070.34;5056472;28;9492;-37
2024/02/29 06:48:31;;;;;;;;;;;;;;;26.12;38.33;94067.59;5018299;28;9543;-37
2024/02/29 06:51:15;;;;;;;;;;;;;;;26.13;38.12;94060.09;5000983;28;9123;-37
2024/02/29 06:53:51;;;;;;;;;;;;;;;26.12;38.75;94053.09;5007481;28;7244;-37
2024/02/29 06:56:43;;;;;;;;;;;;;;;26.15;38.76;94060.31;5015272;28;7295;-37
2024/02/29 06:59:28;;;;;;;;;;;;;;;26.14;38.76;94054.03;4995833;28;7139;-37
2024/02/29 07:01:56;;;;;;;;;;;;;;;26.16;38.18;94046.00;5010962;28;9010;-37
2024/02/29 07:04:39;;;;;;;;;;;;;;;26.14;38.15;94045.78;5022773;28;7519;-37
2024/02/29 07:07:07;;;;;;;;;;;;;;;26.13;38.00;94041.53;5029330;28;9291;-37
2024/02/29 07:10:11;;;;;;;;;;;;;;;26.14;38.58;94043.00;5014859;28;7503;-37
2024/02/29 07:12:57;;;;;;;;;;;;;;;26.13;38.25;94043.53;5020650;28;8689;-37
2024/02/29 07:15:38;;;;;;;;;;;;;;;26.12;38.01;94031.75;5027544;28;9121;-43
2024/02/29 07:18:06;;;;;;;;;;;;;;;26.14;38.15;94034.75;5007140;28;9042;-41
2024/02/29 07:20:32;;;;;;;;;;;;;;;26.14;38.00;94026.47;5005965;28;7115;-42
2024/02/29 07:23:02;;;;;;;;;;;;;;;26.14;38.08;94023.00;5071524;28;7369;-41
2024/02/29 07:25:30;;;;;;;;;;;;;;;26.15;38.73;94016.94;5078431;28;7102;-42
2024/02/29 07:27:57;;;;;;;;;;;;;;;26.15;37.96;94019.72;5055319;28;9409;-41
2024/02/29 07:30:42;;;;;;;;;;;;;;;26.14;38.12;94018.22;5075244;28;9189;-42
2024/02/29 07:33:10;;;;;;;;;;;;;;;26.15;37.99;94013.44;5079322;28;7007;-42
2024/02/29 07:35:36;;;;;;;;;;;;;;;26.13;38.64;94007.72;5071013;28;7032;-42
2024/02/29 07:38:53;;;;;;;;;;;;;;;26.19;37.90;94007.66;5065484;28;7314;-41
2024/02/29 07:41:35;;;;;;;;;;;;;;;26.21;37.81;94005.09;5069130;28;7095;-42
2024/02/29 07:44:14;;;;;;;;;;;;;;;26.16;37.52;94003.91;5084822;28;7205;-41
2024/02/29 07:46:50;;;;;;;;;;;;;;;26.12;38.13;93995.94;5059820;28;8805;-42
2024/02/29 07:49:18;;;;;;;;;;;;;;;26.14;37.45;93990.63;5068207;28;7133;-43
2024/02/29 07:52:04;;;;;;;;;;;;;;;26.12;37.96;93987.66;5086338;28;7015;-42
2024/02/29 07:54:40;;;;;;;;;;;;;;;26.17;38.35;93989.59;5078082;28;7659;-42
2024/02/29 07:57:15;;;;;;;;;;;;;;;26.15;38.29;93981.13;5077543;28;7117;-43
2024/02/29 07:59:48;;;;;;;;;;;;;;;26.14;38.21;93976.84;5074998;28;9318;-42
2024/02/29 08:02:48;;;;;;;;;;;;;;;26.16;38.12;93976.34;5081909;28;8714;-42
2024/02/29 08:05:16;;;;;;;;;;;;;;;26.14;38.59;93976.84;5011881;28;7005;-41
2024/02/29 08:07:51;;;;;;;;;;;;;;;26.13;38.07;93971.88;5029316;28;7084;-41
2024/02/29 08:10:30;;;;;;;;;;;;;;;26.16;38.61;93968.09;4996872;28;7247;-43
2024/02/29 08:13:31;;;;;;;;;;;;;;;26.16;38.63;93962.56;5020659;28;7629;-42
2024/02/29 08:15:58;;;;;;;;;;;;;;;26.15;38.62;93961.81;4924332;29;9216;-43
2024/02/29 08:18:24;;;;;;;;;;;;;;;26.13;38.46;93944.31;4946517;28;8946;-41
2024/02/29 08:20:50;;;;;;;;;;;;;;;26.16;38.58;93948.78;4946814;28;9010;-42
2024/02/29 08:23:16;;;;;;;;;;;;;;;26.12;38.95;93940.81;4926922;28;7215;-43
2024/02/29 08:25:42;;;;;;;;;;;;;;;26.16;38.36;93949.50;4947566;28;8293;-37
2024/02/29 08:28:08;;;;;;;;;;;;;;;26.14;38.95;93935.50;4940930;28;7098;-38
2024/02/29 08:30:34;;;;;;;;;;;;;;;26.19;38.36;93947.00;4929957;28;7079;-38
2024/02/29 08:33:02;;;;;;;;;;;;;;;26.16;38.74;93943.28;4927005;29;7289;-37
2024/02/29 08:35:29;;;;;;;;;;;;;;;26.19;38.61;93928.44;4915639;29;8978;-38
2024/02/29 08:37:55;;;;;;;;;;;;;;;26.21;39.00;93933.44;4922263;28;7066;-38
2024/02/29 08:40:21;;;;;;;;;;;;;;;26.22;38.81;93932.16;4960246;28;8173;-37
2024/02/29 08:42:56;;;;;;;;;;;;;;;26.22;38.62;93935.66;4967367;28;7313;-37
2024/02/29 08:45:52;;;;;;;;;;;;;;;26.23;38.90;93926.09;4987204;28;7178;-38
2024/02/29 08:48:31;;;;;;;;;;;;;;;26.24;38.50;93921.34;4905482;29;8226;-37
2024/02/29 08:50:58;;;;;;;;;;;;;;;26.22;38.94;93927.38;4981973;28;7264;-38
2024/02/29 08:53:53;;;;;;;;;;;;;;;26.24;38.48;93921.34;5014481;28;9046;-37
2024/02/29 08:56:19;;;;;;;;;;;;;;;26.25;38.62;93917.31;5012678;28;7060;-37
2024/02/29 08:58:59;;;;;;;;;;;;;;;26.22;38.94;93919.13;5012465;28;7259;-38
2024/02/29 09:01:26;;;;;;;;;;;;;;;26.23;38.27;93923.34;5012064;28;7794;-37
2024/02/29 09:04:01;;;;;;;;;;;;;;;26.21;38.27;93916.88;5016826;28;7008;-38
2024/02/29 09:06:36;;;;;;;;;;;;;;;26.23;38.97;93908.84;5019742;28;7387;-37
2024/02/29 09:09:19;;;;;;;;;;;;;;;26.24;38.61;93905.53;4994273;28;7290;-37
2024/02/29 09:12:06;;;;;;;;;;;;;;;26.24;38.78;93897.28;5013566;28;7492;-37
2024/02/29 09:14:44;;;;;;;;;;;;;;;26.24;38.34;93897.28;4998837;28;9192;-37
2024/02/29 09:17:20;;;;;;;;;;;;;;;26.24;39.09;93893.78;4990665;28;8194;-37
2024/02/29 09:19:46;;;;;;;;;;;;;;;26.24;38.58;93900.03;5018425;28;6948;-38
2024/02/29 09:22:12;;;;;;;;;;;;;;;26.24;38.63;93893.78;5012873;28;7427;-37
2024/02/29 09:24:38;;;;;;;;;;;;;;;26.28;38.58;93894.19;4974607;28;7009;-37
2024/02/29 09:27:13;;;;;;;;;;;;;;;26.28;38.72;93894.19;5018890;28;7340;-38
2024/02/29 09:29:39;;;;;;;;;;;;;;;26.26;38.33;93896.75;5024948;28;7268;-38
2024/02/29 09:32:05;;;;;;;;;;;;;;;26.27;38.83;93881.69;5035220;28;7209;-38
2024/02/29 09:34:31;;;;;;;;;;;;;;;26.30;38.75;93891.66;5067821;28;8703;-42
2024/02/29 09:36:59;;;;;;;;;;;;;;;26.32;38.61;93886.38;5068837;28;7029;-43
2024/02/29 09:39:26;;;;;;;;;;;;;;;26.31;38.61;93890.41;5060048;28;7083;-41
2024/02/29 09:41:53;;;;;;;;;;;;;;;26.28;38.39;93889.44;5075364;28;7123;-41
2024/02/29 09:44:26;;;;;;;;;;;;;;;26.30;38.47;93881.38;5050658;28;7076;-41
2024/02/29 09:46:56;;;;;;;;;;;;;;;26.29;39.09;93888.19;5060700;28;8785;-42
2024/02/29 09:49:53;;;;;;;;;;;;;;;26.30;39.00;93891.66;5056213;28;8727;-43
2024/02/29 09:52:38;;;;;;;;;;;;;;;26.28;38.69;93883.91;5032114;28;9046;-41
2024/02/29 09:55:06;;;;;;;;;;;;;;;26.27;38.88;93878.94;5039107;28;9291;-41
2024/02/29 09:58:17;;;;;;;;;;;;;;;26.26;38.33;93874.69;5040695;28;8991;-44
2024/02/29 10:00:46;;;;;;;;;;;;;;;26.25;38.38;93884.25;4974358;28;7225;-42
2024/02/29 10:03:42;;;;;;;;;;;;;;;26.25;38.09;93871.22;4963669;28;7476;-41
2024/02/29 10:06:11;;;;;;;;;;;;;;;26.26;38.18;93858.16;4901215;29;9664;-42
2024/02/29 10:09:13;;;;;;;;;;;;;;;26.24;37.72;93872.47;4889530;29;7094;-41
2024/02/29 10:11:41;;;;;;;;;;;;;;;26.24;37.51;93868.97;4877109;29;9110;-42
2024/02/29 10:17:56;;;;;;;;;;;;;;;26.22;37.48;93852.97;4850120;29;7124;-42
2024/02/29 10:20:25;;;;;;;;;;;;;;;26.19;37.58;93845.00;4853654;29;9124;-41
2024/02/29 10:22:54;;;;;;;;;;;;;;;26.22;37.99;93850.19;4852374;29;7090;-42
2024/02/29 10:25:21;;;;;;;;;;;;;;;26.23;37.37;93853.69;4844296;29;7428;-41
2024/02/29 10:28:12;;;;;;;;;;;;;;;26.23;37.63;93859.22;4828966;29;7328;-42
2024/02/29 10:30:39;;;;;;;;;;;;;;;26.23;37.68;93853.69;4849410;29;7002;-41
2024/02/29 10:33:17;;;;;;;;;;;;;;;26.23;37.98;93848.91;4903418;29;7052;-42
2024/02/29 10:35:48;;;;;;;;;;;;;;;26.25;38.07;93851.16;4890949;29;7017;-41
2024/02/29 10:38:16;;;;;;;;;;;;;;;26.24;37.86;93849.66;4899593;29;9024;-41
2024/02/29 10:40:44;;;;;;;;;;;;;;;26.25;38.26;93840.88;4914018;29;7118;-43
2024/02/29 10:43:15;;;;;;;;;;;;;;;26.28;37.80;93839.06;4978837;28;7104;-41
2024/02/29 10:46:03;;;;;;;;;;;;;;;26.29;37.96;93843.31;5010827;28;7106;-37
2024/02/29 10:49:01;;;;;;;;;;;;;;;26.28;37.82;93842.56;4994993;28;7314;-38
2024/02/29 10:51:31;;;;;;;;;;;;;;;26.28;38.33;93830.78;5007500;28;9152;-37
2024/02/29 10:54:39;;;;;;;;;;;;;;;26.29;38.08;93824.00;5043947;28;9116;-37
2024/02/29 10:57:40;;;;;;;;;;;;;;;26.28;37.65;93828.78;5052961;28;7028;-37
2024/02/29 11:00:41;;;;;;;;;;;;;;;26.29;38.19;93819.25;4994058;28;7307;-37
2024/02/29 11:03:12;;;;;;;;;;;;;;;26.28;38.06;93812.25;4932347;29;7450;-37
2024/02/29 11:05:41;;;;;;;;;;;;;;;26.27;37.93;93819.03;4933989;29;7159;-37
2024/02/29 11:08:43;;;;;;;;;;;;;;;26.30;38.39;93815.22;4927605;29;7066;-37
2024/02/29 11:11:14;;;;;;;;;;;;;;;26.31;38.23;93807.69;4873049;29;7024;-38
2024/02/29 11:14:02;;;;;;;;;;;;;;;26.33;38.60;93807.91;4879244;29;7122;-37
2024/02/29 11:16:32;;;;;;;;;;;;;;;26.33;37.93;93792.09;4879322;29;9046;-38
2024/02/29 11:19:02;;;;;;;;;;;;;;;26.36;38.45;93798.59;4893323;29;7136;-38
2024/02/29 11:21:28;;;;;;;;;;;;;;;26.36;38.38;93793.78;4853191;29;8692;-38
2024/02/29 11:24:06;;;;;;;;;;;;;;;26.37;38.62;93787.00;4863055;29;8788;-37
2024/02/29 11:26:37;;;;;;;;;;;;;;;26.39;38.12;93792.00;4859578;29;9077;-38
2024/02/29 11:29:18;;;;;;;;;;;;;;;26.37;38.42;93781.50;4887959;29;7109;-37
2024/02/29 11:31:55;;;;;;;;;;;;;;;26.37;38.30;93778.75;4872497;29;6983;-37
2024/02/29 11:34:34;;;;;;;;;;;;;;;26.39;38.28;93778.94;4865351;29;7319;-37
2024/02/29 11:37:14;;;;;;;;;;;;;;;26.38;38.30;93771.22;4912568;29;7279;-37
2024/02/29 11:40:19;;;;;;;;;;;;;;;26.39;38.32;93772.69;5003133;28;7449;-37
2024/02/29 11:43:02;;;;;;;;;;;;;;;26.37;38.02;93769.72;5023566;28;7239;-37
2024/02/29 11:45:41;;;;;;;;;;;;;;;26.37;38.50;93764.94;5049113;28;7277;-37
2024/02/29 11:48:38;;;;;;;;;;;;;;;26.37;38.47;93753.19;5079639;28;7256;-38
2024/02/29 11:51:19;;;;;;;;;;;;;;;26.36;38.02;93755.19;5029777;28;7352;-37
2024/02/29 11:53:56;;;;;;;;;;;;;;;26.37;37.91;93747.66;5021082;28;7263;-55
2024/02/29 11:56:32;;;;;;;;;;;;;;;26.40;38.61;93741.84;5032678;28;7201;-55
2024/02/29 11:59:46;;;;;;;;;;;;;;;26.38;38.30;93738.84;5022306;28;7160;-55
2024/02/29 12:02:15;;;;;;;;;;;;;;;26.41;38.17;93731.53;4980007;28;9465;-55
2024/02/29 12:05:01;;;;;;;;;;;;;;;26.42;38.52;93722.00;4960883;28;9217;-55
2024/02/29 12:07:51;;;;;;;;;;;;;;;26.41;38.08;93720.50;4992150;28;7240;-55
2024/02/29 12:10:30;;;;;;;;;;;;;;;26.41;37.98;93720.50;4956439;28;7895;-55
2024/02/29 12:13:11;;;;;;;;;;;;;;;26.40;38.16;93717.03;4967117;28;9168;-55
2024/02/29 12:15:39;;;;;;;;;;;;;;;26.39;38.52;93706.50;4984490;28;7331;-55
2024/02/29 12:18:15;;;;;;;;;;;;;;;26.38;38.23;93705.75;4976905;28;7026;-55
2024/02/29 12:20:42;;;;;;;;;;;;;;;26.38;37.90;93707.81;4954228;28;7253;-55
2024/02/29 12:23:15;;;;;;;;;;;;;;;26.39;38.57;93703.75;4988750;28;7373;-55
2024/02/29 12:25:47;;;;;;;;;;;;;;;26.36;38.49;93694.53;4989553;28;7690;-55
2024/02/29 12:28:43;;;;;;;;;;;;;;;26.40;38.20;93700.47;4975366;28;7173;-54
2024/02/29 12:31:09;;;;;;;;;;;;;;;26.40;38.84;93692.22;4985386;28;7182;-55
2024/02/29 12:33:46;;;;;;;;;;;;;;;26.40;38.91;93681.19;4992489;28;9400;-55
2024/02/29 12:36:29;;;;;;;;;;;;;;;26.43;38.83;93690.38;4966465;28;7055;-55
2024/02/29 12:39:10;;;;;;;;;;;;;;;26.44;38.74;93680.84;4977580;28;7480;-55
2024/02/29 12:41:36;;;;;;;;;;;;;;;26.46;38.66;93684.56;4996618;28;7052;-56
2024/02/29 12:44:04;;;;;;;;;;;;;;;26.49;38.78;93677.25;4994437;28;8974;-56
2024/02/29 12:46:33;;;;;;;;;;;;;;;26.46;38.27;93678.28;4977325;28;7030;-55
2024/02/29 12:49:03;;;;;;;;;;;;;;;26.46;38.48;93659.75;4997385;28;7354;-55
2024/02/29 12:51:29;;;;;;;;;;;;;;;26.46;38.82;93651.47;5002953;28;9409;-55
2024/02/29 12:54:00;;;;;;;;;;;;;;;26.50;38.70;93656.66;4975743;28;7080;-55
2024/02/29 12:56:27;;;;;;;;;;;;;;;26.50;38.38;93651.88;5008674;28;8718;-55
2024/02/29 12:58:54;;;;;;;;;;;;;;;26.48;38.33;93646.16;4999179;28;7108;-55
2024/02/29 13:01:40;;;;;;;;;;;;;;;26.52;38.58;93643.06;4958688;28;7866;-55
2024/02/29 13:04:06;;;;;;;;;;;;;;;26.50;38.72;93640.09;4991491;28;7072;-57
2024/02/29 13:06:51;;;;;;;;;;;;;;;26.48;38.94;93639.91;4994234;28;7032;-57
2024/02/29 13:09:35;;;;;;;;;;;;;;;26.54;38.43;93632.22;5057702;28;9021;-57
2024/02/29 13:12:11;;;;;;;;;;;;;;;26.53;38.38;93633.53;5075698;28;8688;-57
2024/02/29 13:14:38;;;;;;;;;;;;;;;26.51;38.67;93625.03;5060104;28;6909;-57
2024/02/29 13:17:04;;;;;;;;;;;;;;;26.57;38.66;93622.91;5076420;28;7248;-57
2024/02/29 13:19:41;;;;;;;;;;;;;;;26.59;38.40;93609.31;5070022;28;7036;-58
2024/02/29 13:22:07;;;;;;;;;;;;;;;26.61;38.99;93604.75;5060716;28;9063;-57
2024/02/29 13:24:35;;;;;;;;;;;;;;;26.59;38.22;93604.53;5064517;28;7274;-57
2024/02/29 13:27:30;;;;;;;;;;;;;;;26.58;38.92;93596.78;5071547;28;7287;-57
2024/02/29 13:29:56;;;;;;;;;;;;;;;26.58;38.36;93597.53;5031809;28;7678;-58
2024/02/29 13:32:23;;;;;;;;;;;;;;;26.55;38.79;93592.34;5045203;28;9723;-57
2024/02/29 13:34:50;;;;;;;;;;;;;;;26.58;38.75;93585.75;5035411;28;8212;-57
2024/02/29 13:37:21;;;;;;;;;;;;;;;26.58;39.42;93577.47;5034673;28;7023;-57
2024/02/29 13:40:11;;;;;;;;;;;;;;;26.61;38.78;93574.41;5016233;28;7711;-57